Terminal Aerodrome Forecast
Issued by NWS

Home | Current Version | Previous Version | Text Only | Print | Product List | Glossary On
Versions: 1 2 3 4 5 6 7 8 9 10 11 12
000
FTUS45 KRIW 181700
TAFCPR
TAF
KCPR 181720Z 1818/1918 22014KT P6SM SCT200
     FM182200 21011KT P6SM SCT200
     FM190600 22014KT P6SM SCT150=

USA.gov is the U.S. government's official web portal to all federal, state and local government web resources and services.